Time;durP1;ratioP1;P1;durP2;ratioP2;P2;SDS_P1;SDS_P2;PMS_P1;PMS_P2;Temp;Humidity;BMP_temperature;BMP_pressure;BME280_temperature;BME280_humidity;BME280_pressure;Samples;Min_cycle;Max_cycle;Signal;HPM_P1;HPM_P2
2023/04/01 00:00:32;;;;;;;15.38;11.30;;;9.50;95.00;;;;;;5071289;28;20119;-48
2023/04/01 00:03:02;;;;;;;14.05;11.43;;;9.50;95.00;;;;;;5063754;28;20065;-48
2023/04/01 00:05:30;;;;;;;14.15;11.38;;;9.50;95.00;;;;;;5056250;28;20036;-45
2023/04/01 00:07:57;;;;;;;13.98;10.43;;;9.50;95.00;;;;;;5052574;28;20017;-48
2023/04/01 00:10:23;;;;;;;17.08;10.63;;;9.50;95.00;;;;;;5056046;28;20029;-46
2023/04/01 00:12:48;;;;;;;14.35;11.70;;;9.50;95.00;;;;;;5052993;28;20082;-48
2023/04/01 00:15:15;;;;;;;14.32;9.85;;;9.50;95.10;;;;;;5053357;28;20032;-46
2023/04/01 00:17:44;;;;;;;13.65;10.63;;;9.50;95.00;;;;;;5053240;28;20040;-47
2023/04/01 00:20:16;;;;;;;17.63;11.02;;;9.50;95.10;;;;;;5059265;28;20028;-46
2023/04/01 00:22:44;;;;;;;19.70;11.60;;;9.50;95.10;;;;;;5051593;28;20044;-49
2023/04/01 00:25:12;;;;;;;11.88;9.52;;;9.50;95.10;;;;;;5051896;28;20083;-46
2023/04/01 00:27:40;;;;;;;12.73;9.82;;;9.50;95.10;;;;;;5051531;28;20025;-46
2023/04/01 00:30:08;;;;;;;17.75;10.75;;;9.50;95.10;;;;;;5051735;28;20116;-45
2023/04/01 00:32:36;;;;;;;14.48;10.88;;;9.50;95.10;;;;;;5071184;28;20041;-45
2023/04/01 00:35:04;;;;;;;16.63;10.93;;;9.50;95.10;;;;;;5055281;28;20036;-47
2023/04/01 00:37:30;;;;;;;14.85;11.15;;;9.50;95.20;;;;;;5051723;28;20036;-45
2023/04/01 00:39:57;;;;;;;15.73;10.70;;;9.50;95.20;;;;;;5019355;28;20094;-45
2023/04/01 00:42:25;;;;;;;15.65;10.98;;;9.60;95.20;;;;;;5035536;28;20033;-46
2023/04/01 00:44:54;;;;;;;15.73;10.50;;;9.60;95.20;;;;;;5052973;28;20036;-46
2023/04/01 00:47:24;;;;;;;15.35;10.65;;;9.60;95.20;;;;;;5052606;28;20362;-46
2023/04/01 00:49:53;;;;;;;17.38;12.25;;;9.60;95.20;;;;;;5052016;28;20036;-46
2023/04/01 00:52:25;;;;;;;17.57;11.57;;;9.60;95.20;;;;;;5051942;28;20439;-46
2023/04/01 00:54:58;;;;;;;14.25;11.35;;;9.60;95.20;;;;;;5051563;28;20029;-48
2023/04/01 00:57:31;;;;;;;22.98;13.40;;;9.60;95.30;;;;;;5035330;28;20064;-47
2023/04/01 00:59:57;;;;;;;19.10;14.05;;;9.60;95.20;;;;;;5019455;28;20124;-54
2023/04/01 01:02:23;;;;;;;20.85;14.32;;;9.60;95.20;;;;;;5051505;28;20032;-55
2023/04/01 01:04:52;;;;;;;17.33;12.98;;;9.70;95.30;;;;;;5051609;28;20051;-52
2023/04/01 01:07:47;;;;;;;24.60;13.52;;;9.70;95.20;;;;;;5052460;28;20048;-59
2023/04/01 01:10:32;;;;;;;19.58;13.00;;;9.70;95.20;;;;;;5052600;28;20036;-58
2023/04/01 01:13:11;;;;;;;16.98;12.82;;;9.70;95.20;;;;;;5034607;28;20036;-53
2023/04/01 01:16:15;;;;;;;20.67;15.20;;;9.70;95.30;;;;;;5051517;28;20060;-50
2023/04/01 01:19:36;;;;;;;18.98;13.98;;;9.70;95.20;;;;;;5052506;28;20275;-50
2023/04/01 01:22:17;;;;;;;22.20;14.27;;;9.70;95.30;;;;;;5050113;28;20040;-50
2023/04/01 01:25:11;;;;;;;17.15;14.85;;;9.70;95.30;;;;;;5072480;28;20040;-50
2023/04/01 01:27:41;;;;;;;17.85;13.70;;;9.70;95.30;;;;;;5054418;28;20063;-49
2023/04/01 01:30:35;;;;;;;16.05;12.85;;;9.70;95.30;;;;;;5052086;28;20025;-51
2023/04/01 01:33:16;;;;;;;18.58;14.10;;;9.70;95.30;;;;;;5069188;28;20037;-47
2023/04/01 01:35:48;;;;;;;18.60;13.10;;;9.70;95.30;;;;;;5071744;28;20040;-47
2023/04/01 01:38:19;;;;;;;21.65;15.75;;;9.60;95.30;;;;;;5071434;28;20039;-47
2023/04/01 01:40:53;;;;;;;25.73;17.38;;;9.70;95.30;;;;;;5070597;28;20525;-48
2023/04/01 01:43:37;;;;;;;23.25;16.85;;;9.70;95.40;;;;;;5036002;28;20126;-47
2023/04/01 01:46:09;;;;;;;20.67;16.95;;;9.60;95.30;;;;;;5034970;28;20071;-49
2023/04/01 01:48:36;;;;;;;21.15;16.55;;;9.70;95.40;;;;;;5050949;28;20124;-47
2023/04/01 01:51:08;;;;;;;28.05;20.73;;;9.70;95.40;;;;;;5034427;28;20029;-47
2023/04/01 01:53:41;;;;;;;28.50;19.83;;;9.70;95.40;;;;;;5051229;28;20025;-48
2023/04/01 01:56:07;;;;;;;29.48;20.27;;;9.70;95.40;;;;;;5051147;28;20029;-47
2023/04/01 01:58:53;;;;;;;31.77;20.80;;;9.70;95.40;;;;;;5050919;28;20032;-47
2023/04/01 02:01:25;;;;;;;24.83;19.80;;;9.70;95.40;;;;;;5051932;28;20090;-46
2023/04/01 02:04:00;;;;;;;26.77;19.98;;;9.70;95.40;;;;;;5051021;28;20455;-47
2023/04/01 02:06:36;;;;;;;27.20;21.90;;;9.70;95.40;;;;;;5050556;28;20060;-47
2023/04/01 02:09:06;;;;;;;30.02;22.25;;;9.70;95.40;;;;;;5053751;28;20033;-46
2023/04/01 02:11:35;;;;;;;;;;;9.70;95.50;;;;;;5055143;28;20048;-47
2023/04/01 02:14:21;;;;;;;30.15;21.00;;;9.70;95.40;;;;;;5056780;28;19908;-47
2023/04/01 02:17:09;;;;;;;28.60;21.02;;;9.70;95.40;;;;;;5074531;28;20102;-48
2023/04/01 02:19:59;;;;;;;29.90;21.02;;;9.70;95.50;;;;;;5059769;28;20446;-46
2023/04/01 02:22:31;;;;;;;;;;;9.70;95.40;;;;;;5041323;28;20106;-47
2023/04/01 02:25:04;;;;;;;27.35;20.35;;;9.60;95.50;;;;;;5055750;28;19991;-49
2023/04/01 02:27:30;;;;;;;27.35;20.23;;;9.70;95.40;;;;;;5021769;28;20032;-50
2023/04/01 02:29:59;;;;;;;26.58;19.48;;;9.60;95.40;;;;;;5054309;28;20106;-50
2023/04/01 02:32:39;;;;;;;25.00;19.58;;;9.60;95.40;;;;;;5054507;28;20366;-49
2023/04/01 02:35:16;;;;;;;29.15;21.10;;;9.60;95.50;;;;;;5055109;28;20033;-49
2023/04/01 02:37:48;;;;;;;22.98;18.90;;;9.60;95.40;;;;;;5053956;28;20029;-53
2023/04/01 02:40:16;;;;;;;25.98;19.48;;;9.60;95.40;;;;;;5055143;28;20025;-50
2023/04/01 02:42:43;;;;;;;28.42;17.42;;;9.50;95.40;;;;;;5054062;28;20037;-51
2023/04/01 02:45:10;;;;;;;24.80;18.60;;;9.60;95.40;;;;;;5054926;28;20087;-51
2023/04/01 02:47:37;;;;;;;23.60;18.58;;;9.60;95.50;;;;;;5055083;28;20358;-49
2023/04/01 02:50:05;;;;;;;24.10;18.35;;;9.60;95.50;;;;;;5054855;28;20017;-49
2023/04/01 02:52:34;;;;;;;26.25;17.33;;;9.60;95.50;;;;;;5055064;28;20074;-49
2023/04/01 02:55:01;;;;;;;24.90;17.65;;;9.60;95.50;;;;;;5053877;28;20087;-54
2023/04/01 02:57:28;;;;;;;24.02;18.10;;;9.60;95.50;;;;;;5063316;28;20036;-56
2023/04/01 02:59:59;;;;;;;25.48;17.58;;;9.60;95.50;;;;;;5074769;28;20032;-58
2023/04/01 03:02:26;;;;;;;21.75;16.60;;;9.50;95.40;;;;;;5055595;28;20037;-58
2023/04/01 03:04:53;;;;;;;23.55;16.35;;;9.60;95.50;;;;;;5036997;28;20349;-56
2023/04/01 03:07:19;;;;;;;20.73;14.18;;;9.60;95.50;;;;;;5054714;28;20328;-58
2023/04/01 03:09:47;;;;;;;16.35;13.50;;;9.60;95.50;;;;;;5054363;28;20374;-57
2023/04/01 03:12:14;;;;;;;19.73;14.20;;;9.60;95.50;;;;;;5054801;28;20043;-58
2023/04/01 03:14:42;;;;;;;17.67;14.10;;;9.50;95.50;;;;;;5054408;28;20028;-58
2023/04/01 03:17:10;;;;;;;21.48;15.00;;;9.50;95.60;;;;;;5054570;28;20575;-58
2023/04/01 03:19:36;;;;;;;19.65;15.15;;;9.50;95.50;;;;;;5054320;28;20326;-59
2023/04/01 03:22:03;;;;;;;27.40;17.65;;;9.50;95.60;;;;;;5054364;28;20033;-59
2023/04/01 03:24:31;;;;;;;25.75;19.48;;;9.50;95.60;;;;;;5054124;28;20407;-58
2023/04/01 03:27:00;;;;;;;24.63;18.25;;;9.60;95.60;;;;;;5054491;28;20020;-56
2023/04/01 03:29:31;;;;;;;25.40;18.35;;;9.50;95.60;;;;;;5054104;28;20020;-60
2023/04/01 03:31:58;;;;;;;29.13;19.38;;;9.50;95.60;;;;;;5053347;28;20431;-59
2023/04/01 03:34:26;;;;;;;29.83;19.73;;;9.50;95.60;;;;;;5054342;28;20031;-58
2023/04/01 03:36:54;;;;;;;25.23;18.20;;;9.50;95.60;;;;;;5053296;28;20032;-58
2023/04/01 03:39:21;;;;;;;27.40;20.02;;;9.50;95.60;;;;;;5054281;28;20083;-57
2023/04/01 03:41:49;;;;;;;29.48;19.25;;;9.50;95.60;;;;;;5054027;28;20461;-54
2023/04/01 03:44:22;;;;;;;29.73;19.80;;;9.50;95.60;;;;;;5053882;28;20024;-57
2023/04/01 03:46:50;;;;;;;27.83;18.52;;;9.50;95.70;;;;;;5053872;28;20033;-56
2023/04/01 03:49:19;;;;;;;27.83;19.25;;;9.50;95.70;;;;;;5053557;28;20032;-56
2023/04/01 03:51:45;;;;;;;31.75;19.33;;;9.50;95.70;;;;;;5053695;28;20035;-58
2023/04/01 03:54:11;;;;;;;29.42;17.85;;;9.50;95.70;;;;;;5035885;28;20032;-52
2023/04/01 03:56:38;;;;;;;26.33;17.90;;;9.50;95.70;;;;;;5052700;28;20025;-55
2023/04/01 03:59:08;;;;;;;28.27;17.85;;;9.50;95.70;;;;;;5052949;28;20072;-53
2023/04/01 04:01:33;;;;;;;;;;;9.50;95.70;;;;;;5055748;28;20100;-53
2023/04/01 04:04:01;;;;;;;27.83;17.52;;;9.50;95.70;;;;;;5061438;28;20000;-53
2023/04/01 04:06:27;;;;;;;26.02;17.67;;;9.50;95.70;;;;;;5052886;28;20110;-55
2023/04/01 04:08:56;;;;;;;26.63;18.30;;;9.50;95.70;;;;;;5071626;28;20033;-59
2023/04/01 04:11:29;;;;;;;23.48;17.70;;;9.50;95.70;;;;;;5062208;28;20335;-59
2023/04/01 04:14:00;;;;;;;29.75;18.88;;;9.50;95.70;;;;;;5053340;28;20124;-60
2023/04/01 04:16:28;;;;;;;27.98;18.30;;;9.50;95.70;;;;;;5052242;28;20029;-59
2023/04/01 04:18:55;;;;;;;26.80;18.50;;;9.50;95.80;;;;;;5057001;28;20462;-58
2023/04/01 04:21:22;;;;;;;25.60;17.85;;;9.50;95.70;;;;;;5056402;28;20056;-58
2023/04/01 04:23:49;;;;;;;26.50;16.15;;;9.50;95.70;;;;;;5053325;28;20032;-59
2023/04/01 04:26:15;;;;;;;23.63;16.38;;;9.50;95.70;;;;;;5064332;28;20058;-57
2023/04/01 04:28:46;;;;;;;26.65;18.23;;;9.40;95.70;;;;;;5059190;28;20033;-57
2023/04/01 04:31:19;;;;;;;21.48;15.98;;;9.40;95.70;;;;;;5052076;28;20040;-59
2023/04/01 04:33:47;;;;;;;23.83;16.88;;;9.40;95.70;;;;;;5052573;28;20517;-60
2023/04/01 04:36:18;;;;;;;27.75;18.13;;;9.40;95.70;;;;;;5058222;28;20044;-57
2023/04/01 04:38:47;;;;;;;24.33;16.30;;;9.40;95.80;;;;;;5062398;28;20087;-56
2023/04/01 04:41:17;;;;;;;26.83;17.87;;;9.40;95.80;;;;;;5061025;28;20028;-56
2023/04/01 04:43:51;;;;;;;24.00;17.85;;;9.40;95.80;;;;;;5047669;28;20043;-58
2023/04/01 04:46:25;;;;;;;25.00;17.27;;;9.40;95.80;;;;;;5044171;28;20036;-59
2023/04/01 04:48:51;;;;;;;26.35;18.15;;;9.40;95.80;;;;;;5061770;28;20040;-55
2023/04/01 04:51:19;;;;;;;24.60;18.05;;;9.40;95.80;;;;;;5061119;28;20033;-54
2023/04/01 04:53:47;;;;;;;25.55;17.40;;;9.40;95.80;;;;;;5061363;28;20037;-57
2023/04/01 04:56:13;;;;;;;26.40;16.77;;;9.40;95.80;;;;;;5049495;28;20029;-50
2023/04/01 04:58:42;;;;;;;28.20;17.52;;;9.40;95.80;;;;;;5059979;28;20507;-54
2023/04/01 05:01:17;;;;;;;23.52;15.43;;;9.40;95.80;;;;;;5063679;28;20393;-50
2023/04/01 05:03:45;;;;;;;30.95;17.95;;;9.40;95.80;;;;;;5060601;28;20033;-48
2023/04/01 05:06:14;;;;;;;23.73;16.42;;;9.40;95.80;;;;;;5046079;28;20049;-50
2023/04/01 05:08:44;;;;;;;24.90;15.88;;;9.40;95.80;;;;;;5061580;28;20083;-52
2023/04/01 05:11:27;;;;;;;25.25;16.95;;;9.40;95.80;;;;;;5060030;28;20120;-52
2023/04/01 05:13:55;;;;;;;26.95;17.10;;;9.40;95.90;;;;;;5062313;28;20425;-56
2023/04/01 05:16:26;;;;;;;22.95;15.05;;;9.40;95.90;;;;;;5066497;28;20119;-55
2023/04/01 05:18:53;;;;;;;25.27;15.30;;;9.40;95.90;;;;;;5071712;28;20028;-55
2023/04/01 05:21:21;;;;;;;21.27;14.25;;;9.40;95.90;;;;;;5067735;28;20024;-54
2023/04/01 05:23:46;;;;;;;24.80;15.70;;;9.40;95.90;;;;;;5061307;28;20039;-56
2023/04/01 05:26:14;;;;;;;23.45;15.15;;;9.40;95.80;;;;;;5062976;28;20021;-56
2023/04/01 05:28:41;;;;;;;25.70;15.07;;;9.40;95.90;;;;;;5057559;28;20358;-53
2023/04/01 05:31:07;;;;;;;19.88;13.57;;;9.40;95.80;;;;;;5056210;28;20040;-52
2023/04/01 05:33:35;;;;;;;21.80;15.82;;;9.40;95.90;;;;;;5051257;28;20132;-51
2023/04/01 05:36:14;;;;;;;21.40;14.85;;;9.40;95.90;;;;;;5052200;28;20515;-58
2023/04/01 05:38:42;;;;;;;21.10;15.23;;;9.40;95.90;;;;;;5059672;28;20053;-57
2023/04/01 05:41:10;;;;;;;24.60;15.63;;;9.40;95.90;;;;;;5061480;28;20095;-59
2023/04/01 05:43:38;;;;;;;23.50;15.73;;;9.40;95.80;;;;;;5066231;28;20032;-60
2023/04/01 05:46:07;;;;;;;22.25;14.88;;;9.40;95.90;;;;;;5061723;28;20024;-60
2023/04/01 05:48:34;;;;;;;20.67;14.27;;;9.40;95.90;;;;;;5055762;28;20029;-60
2023/04/01 05:51:01;;;;;;;20.48;13.75;;;9.40;95.90;;;;;;5033057;28;20098;-58
2023/04/01 05:53:28;;;;;;;19.00;14.02;;;9.40;95.90;;;;;;5061609;28;20033;-59
2023/04/01 05:55:57;;;;;;;19.70;13.88;;;9.40;95.90;;;;;;5064254;28;20525;-57
2023/04/01 05:58:23;;;;;;;23.35;13.52;;;9.40;95.90;;;;;;5068991;28;20032;-59
2023/04/01 06:00:48;;;;;;;19.38;13.18;;;9.40;95.90;;;;;;5057554;28;20517;-59
2023/04/01 06:03:15;;;;;;;22.25;13.10;;;9.40;95.90;;;;;;5060827;28;20116;-58
2023/04/01 06:05:43;;;;;;;21.88;14.05;;;9.40;95.80;;;;;;5056505;28;20045;-54
2023/04/01 06:08:17;;;;;;;15.63;8.05;;;9.40;95.80;;;;;;5056588;28;20041;-58
2023/04/01 06:11:21;;;;;;;11.10;5.53;;;9.10;95.50;;;;;;5048308;28;20037;-59
2023/04/01 06:14:08;;;;;;;12.45;6.15;;;8.70;95.40;;;;;;5056074;28;20354;-59
2023/04/01 06:16:53;;;;;;;9.73;5.35;;;8.60;95.30;;;;;;5057460;28;20309;-60
2023/04/01 06:19:49;;;;;;;14.50;5.93;;;8.50;95.40;;;;;;5054624;28;20029;-60
2023/04/01 06:22:48;;;;;;;14.90;5.93;;;8.40;95.30;;;;;;5060019;28;20058;-58
2023/04/01 06:25:53;;;;;;;10.23;6.17;;;8.40;95.30;;;;;;5061762;28;20028;-57
2023/04/01 06:28:52;;;;;;;11.15;5.65;;;8.30;95.20;;;;;;5074345;28;20024;-59
2023/04/01 06:31:39;;;;;;;11.93;5.05;;;8.30;95.20;;;;;;5072800;28;20035;-57
2023/04/01 06:34:29;;;;;;;7.75;5.22;;;8.10;95.10;;;;;;5055411;28;20116;-56
2023/04/01 06:37:19;;;;;;;11.68;5.22;;;8.10;95.10;;;;;;5063581;28;20698;-57
2023/04/01 06:40:18;;;;;;;7.55;4.93;;;8.00;95.10;;;;;;5062809;28;20119;-57
2023/04/01 06:43:17;;;;;;;7.75;3.83;;;8.00;95.10;;;;;;5053900;28;20531;-56
2023/04/01 06:46:00;;;;;;;;;;;8.00;95.00;;;;;;5055252;28;20036;-58
2023/04/01 06:49:05;;;;;;;6.97;3.35;;;7.90;94.90;;;;;;5059792;28;19942;-58
2023/04/01 06:51:54;;;;;;;12.77;3.88;;;7.90;95.00;;;;;;5054809;28;20047;-59
2023/04/01 06:54:27;;;;;;;6.10;3.35;;;7.90;94.90;;;;;;5054020;28;20615;-57
2023/04/01 06:57:01;;;;;;;6.93;3.33;;;7.80;94.90;;;;;;5068168;28;20127;-57
2023/04/01 06:59:33;;;;;;;4.88;2.63;;;7.70;94.90;;;;;;5053555;28;20068;-57
2023/04/01 07:02:30;;;;;;;6.57;2.42;;;7.70;94.80;;;;;;5053207;28;20091;-50
2023/04/01 07:05:04;;;;;;;8.43;3.05;;;7.70;94.80;;;;;;5058696;28;20412;-52
2023/04/01 07:07:46;;;;;;;6.18;3.30;;;7.70;94.80;;;;;;5041473;28;20362;-53
2023/04/01 07:11:01;;;;;;;5.82;2.50;;;7.70;94.70;;;;;;5057079;28;20036;-51
2023/04/01 07:13:55;;;;;;;9.52;3.03;;;7.70;94.60;;;;;;5055254;28;20025;-48
2023/04/01 07:16:43;;;;;;;4.13;2.58;;;7.70;94.50;;;;;;5055764;28;20422;-48
2023/04/01 07:19:18;;;;;;;6.72;3.53;;;7.70;94.40;;;;;;5057060;28;20038;-54
2023/04/01 07:21:47;;;;;;;7.20;3.13;;;7.70;94.30;;;;;;5064207;28;20368;-52
2023/04/01 07:24:33;;;;;;;7.65;2.45;;;7.70;94.30;;;;;;5074030;28;20044;-50
2023/04/01 07:27:04;;;;;;;6.50;2.35;;;7.70;94.10;;;;;;5056228;28;20029;-52
2023/04/01 07:29:31;;;;;;;5.13;2.60;;;7.70;94.00;;;;;;5063757;28;20124;-49
2023/04/01 07:32:15;;;;;;;4.85;2.13;;;7.90;94.10;;;;;;5054119;28;20040;-51
2023/04/01 07:34:53;;;;;;;3.63;1.70;;;7.80;93.60;;;;;;5054015;28;20021;-48
2023/04/01 07:38:17;;;;;;;4.68;3.35;;;7.70;93.60;;;;;;5053277;28;20025;-49
2023/04/01 07:41:16;;;;;;;4.50;1.65;;;7.80;93.60;;;;;;5011282;28;20058;-49
2023/04/01 07:44:03;;;;;;;6.50;2.67;;;7.70;93.40;;;;;;5011423;28;20037;-48
2023/04/01 07:46:48;;;;;;;3.63;1.98;;;7.70;93.40;;;;;;5066880;28;20064;-49
2023/04/01 07:49:29;;;;;;;4.38;1.88;;;7.80;93.30;;;;;;5073746;28;20020;-50
2023/04/01 07:52:19;;;;;;;6.15;1.80;;;7.80;93.20;;;;;;5055754;28;20116;-52
2023/04/01 07:55:04;;;;;;;4.10;1.30;;;7.80;93.30;;;;;;5053706;28;20062;-46
2023/04/01 07:58:04;;;;;;;5.78;1.23;;;7.70;93.20;;;;;;5053703;28;20028;-49
2023/04/01 08:00:50;;;;;;;4.97;2.10;;;7.70;93.30;;;;;;5054255;28;20030;-47
2023/04/01 08:03:19;;;;;;;5.50;1.88;;;7.70;93.00;;;;;;5062655;28;20146;-46
2023/04/01 08:06:23;;;;;;;7.53;2.15;;;7.70;93.10;;;;;;5064427;28;20040;-49
2023/04/01 08:09:20;;;;;;;7.45;4.45;;;7.60;93.00;;;;;;5067887;28;20347;-45
2023/04/01 08:12:09;;;;;;;6.38;3.25;;;7.70;93.10;;;;;;5048602;28;20073;-46
2023/04/01 08:14:43;;;;;;;9.00;5.28;;;7.70;93.00;;;;;;5053205;28;20086;-45
2023/04/01 08:17:40;;;;;;;10.70;4.32;;;7.70;93.00;;;;;;5053287;28;20040;-45
2023/04/01 08:20:39;;;;;;;7.53;5.03;;;7.70;93.00;;;;;;5052469;28;20052;-46
2023/04/01 08:23:13;;;;;;;6.37;2.20;;;7.90;93.20;;;;;;5052893;28;20021;-46
2023/04/01 08:25:54;;;;;;;5.00;2.47;;;7.80;92.90;;;;;;5071709;28;20035;-46
2023/04/01 08:28:48;;;;;;;6.88;3.75;;;7.80;92.70;;;;;;5056894;28;20400;-45
2023/04/01 08:31:42;;;;;;;9.80;4.13;;;7.70;92.90;;;;;;5056359;28;20069;-46
2023/04/01 08:34:20;;;;;;;12.05;6.53;;;7.70;92.90;;;;;;5038186;28;20437;-47
2023/04/01 08:37:10;;;;;;;3.55;1.27;;;7.60;93.00;;;;;;5052161;28;20108;-47
2023/04/01 08:39:47;;;;;;;2.75;1.38;;;7.60;93.00;;;;;;5053980;28;20131;-49
2023/04/01 08:42:50;;;;;;;2.95;1.60;;;7.60;93.10;;;;;;5055127;28;20029;-51
2023/04/01 08:45:34;;;;;;;5.93;1.45;;;7.60;92.90;;;;;;5062480;28;20056;-50
2023/04/01 08:48:35;;;;;;;3.58;1.27;;;7.50;92.90;;;;;;5062823;28;20085;-53
2023/04/01 08:51:15;;;;;;;2.47;1.05;;;7.50;92.70;;;;;;5070317;28;20028;-54
2023/04/01 08:53:47;;;;;;;3.80;1.25;;;7.50;92.70;;;;;;5068833;28;20024;-53
2023/04/01 08:56:17;;;;;;;8.18;1.83;;;7.60;92.60;;;;;;5067714;28;20032;-55
2023/04/01 08:59:11;;;;;;;4.32;1.77;;;7.60;92.70;;;;;;5071483;28;20063;-57
2023/04/01 09:02:13;;;;;;;4.53;1.80;;;7.60;92.60;;;;;;5072224;28;20430;-54
2023/04/01 09:05:16;;;;;;;4.13;1.50;;;7.60;92.70;;;;;;5054214;28;20086;-49
2023/04/01 09:08:15;;;;;;;2.90;1.17;;;7.60;92.60;;;;;;5057424;28;20029;-48
2023/04/01 09:11:12;;;;;;;5.80;2.60;;;7.60;92.60;;;;;;5049801;28;20109;-48
2023/04/01 09:13:56;;;;;;;5.05;1.45;;;7.70;92.40;;;;;;5051762;28;20488;-48
2023/04/01 09:17:01;;;;;;;5.68;1.40;;;7.60;92.40;;;;;;5056798;28;20450;-49
2023/04/01 09:19:48;;;;;;;5.50;1.77;;;7.70;92.40;;;;;;5040057;28;20060;-49
2023/04/01 09:22:42;;;;;;;3.38;1.08;;;7.60;92.00;;;;;;5054973;28;20036;-48
2023/04/01 09:25:34;;;;;;;5.50;1.10;;;7.60;92.20;;;;;;5050432;28;20025;-47
2023/04/01 09:28:33;;;;;;;5.70;1.20;;;7.60;91.90;;;;;;5058851;28;20036;-50
2023/04/01 09:31:57;;;;;;;3.50;1.40;;;7.70;92.10;;;;;;5062406;28;20073;-48
2023/04/01 09:35:13;;;;;;;3.15;1.20;;;7.70;92.00;;;;;;5028723;28;20439;-46
2023/04/01 09:38:17;;;;;;;2.25;0.90;;;7.70;92.10;;;;;;5008997;28;20070;-46
2023/04/01 09:41:21;;;;;;;3.10;1.30;;;7.70;91.70;;;;;;4993595;28;20050;-48
2023/04/01 09:44:16;;;;;;;5.32;1.38;;;7.60;91.30;;;;;;5012287;28;20026;-50
2023/04/01 09:47:05;;;;;;;5.75;1.33;;;7.70;91.20;;;;;;5029138;28;20034;-48
2023/04/01 09:50:13;;;;;;;6.32;2.10;;;7.60;90.90;;;;;;5023891;28;20029;-46
2023/04/01 09:53:01;;;;;;;3.83;1.40;;;7.70;91.30;;;;;;4996401;28;20052;-47
2023/04/01 09:55:54;;;;;;;4.70;1.50;;;7.80;91.00;;;;;;4989784;28;20049;-48
2023/04/01 09:58:56;;;;;;;5.10;1.35;;;7.80;90.90;;;;;;5020652;28;20045;-47
2023/04/01 10:01:34;;;;;;;4.43;1.08;;;7.90;90.50;;;;;;5029645;28;20033;-51
2023/04/01 10:04:38;;;;;;;5.22;1.38;;;7.90;90.50;;;;;;5032877;28;20036;-50
2023/04/01 10:07:56;;;;;;;3.38;0.90;;;8.00;89.90;;;;;;5059571;28;20040;-48
2023/04/01 10:10:46;;;;;;;5.22;1.35;;;8.10;89.90;;;;;;5061908;28;20029;-47
2023/04/01 10:13:30;;;;;;;2.85;0.98;;;8.40;90.10;;;;;;5071510;28;20346;-46
2023/04/01 10:16:42;;;;;;;3.00;1.10;;;8.40;89.90;;;;;;5064258;28;20037;-50
2023/04/01 10:19:44;;;;;;;4.85;1.15;;;8.40;89.40;;;;;;5046435;28;20688;-49
2023/04/01 10:22:41;;;;;;;4.18;1.20;;;8.50;89.70;;;;;;5059865;28;20017;-50
2023/04/01 10:25:22;;;;;;;4.47;1.08;;;8.50;89.80;;;;;;5055695;28;20600;-46
2023/04/01 10:28:16;;;;;;;3.67;1.05;;;8.50;89.60;;;;;;5059038;28;20033;-44
2023/04/01 10:31:02;;;;;;;2.45;1.10;;;8.30;88.90;;;;;;5060756;28;20032;-45
2023/04/01 10:33:49;;;;;;;2.35;0.90;;;8.20;89.30;;;;;;5058537;28;20025;-45
2023/04/01 10:36:41;;;;;;;4.45;0.88;;;8.20;89.20;;;;;;5066085;28;20039;-46
2023/04/01 10:39:44;;;;;;;5.07;0.93;;;8.30;89.40;;;;;;5065054;28;20025;-44
2023/04/01 10:42:40;;;;;;;2.80;0.82;;;8.30;88.80;;;;;;5063124;28;20032;-47
2023/04/01 10:45:33;;;;;;;1.67;0.80;;;8.30;88.60;;;;;;5065517;28;20047;-44
2023/04/01 10:48:23;;;;;;;4.45;0.90;;;8.20;89.20;;;;;;5074989;28;20107;-45
2023/04/01 10:51:26;;;;;;;3.47;1.13;;;8.10;89.10;;;;;;5074838;28;20020;-48
2023/04/01 10:54:19;;;;;;;3.35;1.00;;;8.10;89.20;;;;;;5073284;28;20048;-44
2023/04/01 10:57:27;;;;;;;3.58;1.20;;;8.10;89.20;;;;;;5074424;28;20024;-45
2023/04/01 11:00:26;;;;;;;2.38;1.05;;;8.10;88.80;;;;;;5054956;28;20421;-45
2023/04/01 11:03:14;;;;;;;6.80;1.00;;;8.10;88.60;;;;;;5054465;28;20033;-43
2023/04/01 11:06:12;;;;;;;2.60;1.65;;;8.20;89.30;;;;;;5053778;28;20052;-45
2023/04/01 11:09:07;;;;;;;6.28;1.77;;;8.30;88.60;;;;;;5054506;28;20021;-43
2023/04/01 11:12:11;;;;;;;8.48;2.55;;;8.40;88.30;;;;;;5056450;28;20032;-46
2023/04/01 11:14:46;;;;;;;2.42;0.98;;;8.50;88.50;;;;;;5074030;28;20065;-45
2023/04/01 11:17:49;;;;;;;3.22;1.88;;;8.50;88.00;;;;;;5054195;28;20029;-43
2023/04/01 11:20:45;;;;;;;3.15;1.08;;;8.50;88.00;;;;;;5054261;28;20120;-43
2023/04/01 11:23:34;;;;;;;1.48;0.70;;;8.50;88.00;;;;;;5053892;28;20063;-44
2023/04/01 11:26:17;;;;;;;3.13;1.02;;;8.50;87.50;;;;;;5052651;28;20094;-44
2023/04/01 11:29:18;;;;;;;3.80;1.38;;;8.70;87.30;;;;;;5053048;28;20036;-45
2023/04/01 11:32:12;;;;;;;1.92;0.80;;;8.80;87.00;;;;;;5065798;28;20037;-45
2023/04/01 11:34:59;;;;;;;3.53;0.80;;;8.70;86.90;;;;;;5064579;28;20029;-45
2023/04/01 11:37:45;;;;;;;2.47;0.90;;;8.70;86.90;;;;;;5056317;28;20021;-45
2023/04/01 11:40:46;;;;;;;1.58;0.73;;;8.60;87.20;;;;;;5053160;28;20024;-45
2023/04/01 11:43:33;;;;;;;2.67;1.00;;;8.50;87.40;;;;;;5053610;28;20373;-45
2023/04/01 11:46:12;;;;;;;3.75;0.98;;;8.60;87.90;;;;;;5053544;28;20077;-48
2023/04/01 11:49:05;;;;;;;7.93;1.10;;;8.60;87.50;;;;;;5053632;28;20082;-46
2023/04/01 11:52:10;;;;;;;5.07;2.28;;;8.40;87.00;;;;;;5072439;28;20028;-46
2023/04/01 11:54:54;;;;;;;4.95;1.50;;;8.40;87.40;;;;;;5073917;28;20025;-46
2023/04/01 11:57:28;;;;;;;1.73;0.80;;;8.40;86.80;;;;;;5073759;28;20040;-45
2023/04/01 12:00:31;;;;;;;6.63;1.27;;;8.40;86.70;;;;;;5053856;28;20029;-45
2023/04/01 12:03:34;;;;;;;3.00;0.90;;;8.40;87.10;;;;;;5059761;28;20028;-45
2023/04/01 12:06:38;;;;;;;2.58;1.00;;;8.50;86.70;;;;;;5053277;28;20126;-45
2023/04/01 12:09:32;;;;;;;2.35;1.00;;;8.50;86.70;;;;;;5053269;28;20498;-45
2023/04/01 12:12:25;;;;;;;7.47;1.08;;;8.30;86.10;;;;;;5063035;28;20078;-45
2023/04/01 12:15:29;;;;;;;2.17;0.95;;;8.30;86.30;;;;;;5061572;28;20025;-45
2023/04/01 12:18:26;;;;;;;2.28;1.33;;;8.30;87.10;;;;;;5047500;28;20094;-45
2023/04/01 12:21:14;;;;;;;5.05;1.75;;;8.30;87.10;;;;;;5061948;28;20040;-45
2023/04/01 12:24:22;;;;;;;5.15;0.98;;;8.30;87.00;;;;;;5046262;28;20378;-46
2023/04/01 12:27:06;;;;;;;5.35;1.48;;;8.20;87.30;;;;;;5063189;28;20075;-45
2023/04/01 12:29:57;;;;;;;4.32;1.60;;;8.30;87.50;;;;;;5062247;28;20397;-44
2023/04/01 12:32:44;;;;;;;4.53;1.30;;;8.30;86.80;;;;;;5065441;28;20421;-50
2023/04/01 12:35:48;;;;;;;6.45;1.73;;;8.20;86.70;;;;;;5059398;28;20148;-48
2023/04/01 12:38:43;;;;;;;3.90;1.60;;;8.20;87.40;;;;;;5062110;28;20037;-45
2023/04/01 12:41:33;;;;;;;6.20;1.52;;;8.00;86.70;;;;;;5062666;28;20025;-45
2023/04/01 12:44:21;;;;;;;5.75;3.83;;;8.00;87.10;;;;;;5062910;28;20374;-46
2023/04/01 12:47:09;;;;;;;7.78;2.03;;;7.90;87.00;;;;;;5062280;28;20617;-45
2023/04/01 12:50:13;;;;;;;5.85;2.22;;;7.90;87.90;;;;;;5061951;28;20043;-45
2023/04/01 12:53:06;;;;;;;5.07;2.28;;;7.90;87.80;;;;;;5059841;28;20354;-44
2023/04/01 12:56:01;;;;;;;3.88;2.28;;;7.90;87.50;;;;;;5057399;28;20057;-46
2023/04/01 12:59:00;;;;;;;8.40;2.75;;;7.90;87.60;;;;;;5057545;28;20029;-45
2023/04/01 13:01:47;;;;;;;8.20;2.78;;;7.80;87.50;;;;;;5051713;28;20465;-51
2023/04/01 13:04:24;;;;;;;9.10;2.95;;;7.70;87.50;;;;;;5072286;28;20032;-50
2023/04/01 13:07:21;;;;;;;8.52;4.18;;;7.70;87.90;;;;;;5069130;28;20147;-47
2023/04/01 13:10:17;;;;;;;7.20;4.28;;;7.60;87.60;;;;;;5052903;28;20033;-48
2023/04/01 13:13:06;;;;;;;10.27;4.32;;;7.50;87.90;;;;;;5070485;28;20032;-43
2023/04/01 13:15:52;;;;;;;9.82;3.40;;;7.40;88.40;;;;;;5052743;28;20048;-45
2023/04/01 13:18:47;;;;;;;8.75;2.97;;;7.40;88.20;;;;;;5052442;28;20037;-45
2023/04/01 13:21:41;;;;;;;8.38;3.50;;;7.40;87.80;;;;;;5052166;28;20033;-45
2023/04/01 13:24:44;;;;;;;9.00;4.32;;;7.50;88.30;;;;;;5044679;28;20045;-45
2023/04/01 13:27:32;;;;;;;6.47;3.00;;;7.60;87.90;;;;;;5056401;28;20061;-45
2023/04/01 13:30:05;;;;;;;6.35;3.55;;;7.40;87.60;;;;;;5058388;28;20094;-48
2023/04/01 13:33:01;;;;;;;10.15;4.63;;;7.50;87.80;;;;;;5053266;28;20099;-45
2023/04/01 13:35:48;;;;;;;7.88;4.32;;;7.40;87.90;;;;;;5057159;28;20051;-49
2023/04/01 13:38:27;;;;;;;10.18;4.70;;;7.30;88.50;;;;;;5063261;28;20388;-47
2023/04/01 13:41:15;;;;;;;8.23;4.43;;;7.30;88.90;;;;;;5060298;28;20035;-48
2023/04/01 13:43:55;;;;;;;8.23;4.10;;;7.30;88.90;;;;;;5062478;28;20016;-44
2023/04/01 13:46:44;;;;;;;11.10;5.00;;;7.20;88.20;;;;;;5046061;28;20041;-45
2023/04/01 13:49:46;;;;;;;8.88;4.50;;;7.10;88.30;;;;;;5059111;28;20499;-44
2023/04/01 13:52:38;;;;;;;7.90;4.88;;;7.20;89.10;;;;;;5046050;28;20033;-45
2023/04/01 13:55:31;;;;;;;9.32;5.32;;;7.20;89.20;;;;;;5061866;28;20078;-45
2023/04/01 13:58:24;;;;;;;7.72;5.05;;;7.30;88.90;;;;;;5060889;28;20052;-44
2023/04/01 14:01:42;;;;;;;10.02;5.13;;;7.20;89.00;;;;;;5057566;28;20028;-45
2023/04/01 14:04:38;;;;;;;10.00;4.65;;;7.00;89.00;;;;;;5010033;28;20171;-43